Time;durP1;ratioP1;P1;durP2;ratioP2;P2;SDS_P1;SDS_P2;PMS_P1;PMS_P2;Temp;Humidity;BMP_temperature;BMP_pressure;BME280_temperature;BME280_humidity;BME280_pressure;Samples;Min_cycle;Max_cycle;Signal;HPM_P1;HPM_P2
2023/09/06 00:00:08;;;;;;;12.88;10.10;;;;;;;;;;5068143;28;20094;-59
2023/09/06 00:02:34;;;;;;;13.13;10.40;;;;;;;;;;5061881;28;20093;-59
2023/09/06 00:05:00;;;;;;;13.50;10.52;;;;;;;;;;5068812;28;20041;-59
2023/09/06 00:07:27;;;;;;;13.00;10.50;;;;;;;;;;5071548;28;20572;-59
2023/09/06 00:09:53;;;;;;;13.40;10.60;;;;;;;;;;5069481;28;20055;-59
2023/09/06 00:12:20;;;;;;;13.50;12.07;;;;;;;;;;5069259;28;20152;-58
2023/09/06 00:14:46;;;;;;;14.10;11.52;;;;;;;;;;5066357;28;20532;-58
2023/09/06 00:17:13;;;;;;;13.25;10.65;;;;;;;;;;5066464;28;20400;-58
2023/09/06 00:19:39;;;;;;;14.70;10.35;;;;;;;;;;5059979;28;20048;-58
2023/09/06 00:22:05;;;;;;;13.70;10.00;;;;;;;;;;5067897;28;20156;-59
2023/09/06 00:24:31;;;;;;;12.25;10.65;;;;;;;;;;5066173;28;20089;-58
2023/09/06 00:26:58;;;;;;;13.82;11.32;;;;;;;;;;5069709;28;20044;-59
2023/09/06 00:29:24;;;;;;;14.63;10.48;;;;;;;;;;5061149;28;20124;-59
2023/09/06 00:31:51;;;;;;;15.13;11.50;;;;;;;;;;5062460;28;20051;-58
2023/09/06 00:34:17;;;;;;;17.63;12.65;;;;;;;;;;5068168;28;20068;-58
2023/09/06 00:36:43;;;;;;;18.58;12.88;;;;;;;;;;5064802;28;20115;-59
2023/09/06 00:39:10;;;;;;;14.20;12.38;;;;;;;;;;5068515;28;20409;-58
2023/09/06 00:41:40;;;;;;;13.25;11.80;;;;;;;;;;5069669;28;20098;-59
2023/09/06 00:44:08;;;;;;;15.02;11.93;;;;;;;;;;5070550;28;20178;-59
2023/09/06 00:46:34;;;;;;;14.05;11.55;;;;;;;;;;5061283;28;20167;-58
2023/09/06 00:49:02;;;;;;;16.38;12.73;;;;;;;;;;5067310;28;20044;-59
2023/09/06 00:51:28;;;;;;;15.30;13.18;;;;;;;;;;5069957;28;20045;-58
2023/09/06 00:53:54;;;;;;;13.18;11.77;;;;;;;;;;5059886;28;20550;-58
2023/09/06 00:56:22;;;;;;;14.27;11.70;;;;;;;;;;5068294;28;20040;-58
2023/09/06 00:58:48;;;;;;;16.80;12.82;;;;;;;;;;5066685;28;20139;-59
2023/09/06 01:01:16;;;;;;;14.90;12.98;;;;;;;;;;5059491;28;20068;-58
2023/09/06 01:03:42;;;;;;;16.83;13.10;;;;;;;;;;5058830;28;20097;-59
2023/09/06 01:06:08;;;;;;;13.70;12.20;;;;;;;;;;5065813;28;20051;-58
2023/09/06 01:08:47;;;;;;;18.77;12.43;;;;;;;;;;5068930;28;20086;-59
2023/09/06 01:11:21;;;;;;;14.95;12.77;;;;;;;;;;5068669;28;20056;-59
2023/09/06 01:13:48;;;;;;;15.45;13.30;;;;;;;;;;5069733;28;20068;-59
2023/09/06 01:16:17;;;;;;;17.17;12.40;;;;;;;;;;5068245;28;20032;-59
2023/09/06 01:18:43;;;;;;;16.80;12.82;;;;;;;;;;5063850;28;20158;-59
2023/09/06 01:21:11;;;;;;;14.23;12.68;;;;;;;;;;5069869;28;20037;-59
2023/09/06 01:23:41;;;;;;;13.60;12.20;;;;;;;;;;5067416;28;20052;-59
2023/09/06 01:26:07;;;;;;;16.20;12.90;;;;;;;;;;5073088;28;20519;-59
2023/09/06 01:28:34;;;;;;;16.83;12.82;;;;;;;;;;5070429;28;20045;-59
2023/09/06 01:31:00;;;;;;;15.10;13.50;;;;;;;;;;5069973;28;20044;-59
2023/09/06 01:33:28;;;;;;;16.67;14.18;;;;;;;;;;5065058;28;20044;-59
2023/09/06 01:35:54;;;;;;;16.25;14.25;;;;;;;;;;5070122;28;20040;-59
2023/09/06 01:38:21;;;;;;;14.93;12.73;;;;;;;;;;5071827;28;20078;-59
2023/09/06 01:40:47;;;;;;;15.90;13.45;;;;;;;;;;5065262;28;20059;-59
2023/09/06 01:43:13;;;;;;;15.05;13.13;;;;;;;;;;5068799;28;20415;-59
2023/09/06 01:45:54;;;;;;;16.13;14.10;;;;;;;;;;5071895;28;20055;-59
2023/09/06 01:48:20;;;;;;;17.05;13.73;;;;;;;;;;5072913;28;20049;-59
2023/09/06 01:50:47;;;;;;;16.92;13.63;;;;;;;;;;5071489;28;20797;-59
2023/09/06 01:53:13;;;;;;;16.92;13.73;;;;;;;;;;5062694;28;20058;-59
2023/09/06 01:55:41;;;;;;;16.02;13.90;;;;;;;;;;5061794;28;20122;-59
2023/09/06 01:58:08;;;;;;;20.15;15.15;;;;;;;;;;5072922;28;20071;-59
2023/09/06 02:00:36;;;;;;;18.05;13.98;;;;;;;;;;5070024;28;20041;-59
2023/09/06 02:03:03;;;;;;;15.98;13.63;;;;;;;;;;5065511;28;20058;-59
2023/09/06 02:05:32;;;;;;;14.75;12.95;;;;;;;;;;5071815;28;20048;-59
2023/09/06 02:07:58;;;;;;;17.70;13.80;;;;;;;;;;5071903;28;20052;-59
2023/09/06 02:10:24;;;;;;;17.98;13.52;;;;;;;;;;5068113;28;20066;-59
2023/09/06 02:12:51;;;;;;;17.05;14.45;;;;;;;;;;5071033;28;20377;-59
2023/09/06 02:15:17;;;;;;;16.33;14.63;;;;;;;;;;5070643;28;20052;-59
2023/09/06 02:17:44;;;;;;;17.02;13.55;;;;;;;;;;5066410;28;20029;-59
2023/09/06 02:20:20;;;;;;;16.17;13.27;;;;;;;;;;5071200;28;20112;-59
2023/09/06 02:22:55;;;;;;;21.08;13.57;;;;;;;;;;5065827;28;20033;-59
2023/09/06 02:25:23;;;;;;;16.23;13.60;;;;;;;;;;5067665;28;20102;-59
2023/09/06 02:27:49;;;;;;;15.23;13.60;;;;;;;;;;5067720;28;20048;-59
2023/09/06 02:30:15;;;;;;;16.08;13.60;;;;;;;;;;5066386;28;20412;-59
2023/09/06 02:32:41;;;;;;;17.05;14.18;;;;;;;;;;5071992;28;20049;-59
2023/09/06 02:35:08;;;;;;;14.73;12.95;;;;;;;;;;5060071;28;20089;-59
2023/09/06 02:37:37;;;;;;;18.08;13.05;;;;;;;;;;5094616;28;20043;-59
2023/09/06 02:40:09;;;;;;;21.33;13.70;;;;;;;;;;5064845;28;20111;-59
2023/09/06 02:42:36;;;;;;;17.83;13.25;;;;;;;;;;5060554;28;20037;-59
2023/09/06 02:45:04;;;;;;;15.88;13.27;;;;;;;;;;5069857;28;20461;-59
2023/09/06 02:47:31;;;;;;;13.70;12.23;;;;;;;;;;5070707;28;20064;-59
2023/09/06 02:49:59;;;;;;;14.27;12.23;;;;;;;;;;5070875;28;20165;-59
2023/09/06 02:52:28;;;;;;;14.80;13.20;;;;;;;;;;5068926;28;20048;-59
2023/09/06 02:54:59;;;;;;;13.95;12.45;;;;;;;;;;5070370;28;20371;-59
2023/09/06 02:57:26;;;;;;;18.50;13.07;;;;;;;;;;5071113;28;20056;-59
2023/09/06 02:59:53;;;;;;;17.13;12.45;;;;;;;;;;5062701;28;20063;-59
2023/09/06 03:02:22;;;;;;;16.27;12.57;;;;;;;;;;5071104;28;20099;-59
2023/09/06 03:04:51;;;;;;;18.05;13.43;;;;;;;;;;5067477;28;20531;-59
2023/09/06 03:07:19;;;;;;;16.30;13.05;;;;;;;;;;5072207;28;20044;-59
2023/09/06 03:09:45;;;;;;;13.80;12.25;;;;;;;;;;5069370;28;20472;-59
2023/09/06 03:12:14;;;;;;;13.75;11.63;;;;;;;;;;5070534;28;20096;-59
2023/09/06 03:14:44;;;;;;;15.25;11.52;;;;;;;;;;5066902;28;20036;-59
2023/09/06 03:17:11;;;;;;;14.63;12.40;;;;;;;;;;5069610;28;20040;-59
2023/09/06 03:19:41;;;;;;;14.65;11.70;;;;;;;;;;5063714;28;20539;-59
2023/09/06 03:22:12;;;;;;;15.05;10.27;;;;;;;;;;5056951;28;20112;-59
2023/09/06 03:24:43;;;;;;;13.20;11.52;;;;;;;;;;5065037;28;20427;-59
2023/09/06 03:27:15;;;;;;;15.93;10.98;;;;;;;;;;5069562;28;20330;-59
2023/09/06 03:29:41;;;;;;;16.80;11.00;;;;;;;;;;5066895;28;20182;-59
2023/09/06 03:32:08;;;;;;;13.77;11.38;;;;;;;;;;5069458;28;20051;-59
2023/09/06 03:34:34;;;;;;;13.38;11.25;;;;;;;;;;5067003;28;20437;-59
2023/09/06 03:37:04;;;;;;;13.25;10.80;;;;;;;;;;5072141;28;20507;-59
2023/09/06 03:39:37;;;;;;;13.38;10.95;;;;;;;;;;5066986;28;20120;-59
2023/09/06 03:42:08;;;;;;;12.38;11.07;;;;;;;;;;5065951;28;20053;-59
2023/09/06 03:44:37;;;;;;;15.10;10.80;;;;;;;;;;5070747;28;20167;-58
2023/09/06 03:47:05;;;;;;;13.95;10.52;;;;;;;;;;5067677;28;20053;-59
2023/09/06 03:49:35;;;;;;;14.05;11.15;;;;;;;;;;5101235;28;20060;-59
2023/09/06 03:52:05;;;;;;;15.68;10.88;;;;;;;;;;5063352;28;20036;-59
2023/09/06 03:54:34;;;;;;;12.93;11.60;;;;;;;;;;5066319;28;20044;-59
2023/09/06 03:57:04;;;;;;;13.73;10.68;;;;;;;;;;5070188;28;20056;-58
2023/09/06 03:59:35;;;;;;;13.52;10.98;;;;;;;;;;5056029;28;20037;-59
2023/09/06 04:02:02;;;;;;;16.15;11.23;;;;;;;;;;5068797;28;20388;-59
2023/09/06 04:04:29;;;;;;;14.63;10.73;;;;;;;;;;5069448;28;20044;-59
2023/09/06 04:06:55;;;;;;;13.50;10.75;;;;;;;;;;5066696;28;20115;-59
2023/09/06 04:09:28;;;;;;;12.65;10.55;;;;;;;;;;5062182;28;20392;-59
2023/09/06 04:11:59;;;;;;;13.60;10.52;;;;;;;;;;5062744;28;20040;-59
2023/09/06 04:14:25;;;;;;;11.98;10.57;;;;;;;;;;5069766;28;20048;-59
2023/09/06 04:16:52;;;;;;;12.07;8.68;;;;;;;;;;5060202;28;20072;-59
2023/09/06 04:19:19;;;;;;;14.30;10.40;;;;;;;;;;5065832;28;20087;-59
2023/09/06 04:21:47;;;;;;;11.75;9.30;;;;;;;;;;5069802;28;20036;-59
2023/09/06 04:24:14;;;;;;;12.63;9.27;;;;;;;;;;5067151;28;20029;-59
2023/09/06 04:26:40;;;;;;;14.13;9.45;;;;;;;;;;5069696;28;20051;-59
2023/09/06 04:29:06;;;;;;;12.43;8.63;;;;;;;;;;5068671;28;20036;-59
2023/09/06 04:31:32;;;;;;;10.38;8.30;;;;;;;;;;5069992;28;20087;-59
2023/09/06 04:33:59;;;;;;;12.05;8.75;;;;;;;;;;5069964;28;20127;-59
2023/09/06 04:36:25;;;;;;;10.63;8.70;;;;;;;;;;5068984;28;20392;-59
2023/09/06 04:38:52;;;;;;;11.50;7.63;;;;;;;;;;5069720;28;20173;-59
2023/09/06 04:41:18;;;;;;;12.05;8.60;;;;;;;;;;5066559;28;20060;-58
2023/09/06 04:43:45;;;;;;;10.70;8.25;;;;;;;;;;5067151;28;20055;-59
2023/09/06 04:46:11;;;;;;;9.82;7.47;;;;;;;;;;5069966;28;20040;-59
2023/09/06 04:48:39;;;;;;;10.43;8.00;;;;;;;;;;5062805;28;20079;-59
2023/09/06 04:51:05;;;;;;;10.25;8.35;;;;;;;;;;5063867;28;20158;-58
2023/09/06 04:53:31;;;;;;;12.60;7.85;;;;;;;;;;5068546;28;20033;-59
2023/09/06 04:55:57;;;;;;;10.60;7.55;;;;;;;;;;5073194;28;20049;-68
2023/09/06 04:58:24;;;;;;;10.23;7.43;;;;;;;;;;5065039;28;20036;-58
2023/09/06 05:00:50;;;;;;;9.68;7.20;;;;;;;;;;5070512;28;20047;-58
2023/09/06 05:03:19;;;;;;;10.90;7.30;;;;;;;;;;5067134;28;20047;-58
2023/09/06 05:05:47;;;;;;;14.57;7.60;;;;;;;;;;5068004;28;20543;-58
2023/09/06 05:08:13;;;;;;;12.35;7.72;;;;;;;;;;5073842;28;20089;-58
2023/09/06 05:10:39;;;;;;;11.60;7.07;;;;;;;;;;5073847;28;20093;-58
2023/09/06 05:13:11;;;;;;;10.93;6.70;;;;;;;;;;5061000;28;20047;-58
2023/09/06 05:15:38;;;;;;;11.90;7.25;;;;;;;;;;5065590;28;20049;-58
2023/09/06 05:18:05;;;;;;;16.10;7.03;;;;;;;;;;5061704;28;20044;-58
2023/09/06 05:20:35;;;;;;;10.50;7.28;;;;;;;;;;5066415;28;20032;-59
2023/09/06 05:23:03;;;;;;;14.75;7.13;;;;;;;;;;5070684;28;20395;-58
2023/09/06 05:25:30;;;;;;;10.95;6.68;;;;;;;;;;5068535;28;20048;-58
2023/09/06 05:28:01;;;;;;;9.65;7.18;;;;;;;;;;5063446;28;20594;-58
2023/09/06 05:30:27;;;;;;;12.10;7.30;;;;;;;;;;5061145;28;20120;-58
2023/09/06 05:32:57;;;;;;;11.02;7.18;;;;;;;;;;5063853;28;20502;-56
2023/09/06 05:35:23;;;;;;;10.93;7.45;;;;;;;;;;5068103;28;20037;-58
2023/09/06 05:37:50;;;;;;;8.73;6.30;;;;;;;;;;5055722;28;20040;-58
2023/09/06 05:40:17;;;;;;;11.05;6.93;;;;;;;;;;5065059;28;20111;-58
2023/09/06 05:42:43;;;;;;;11.27;7.25;;;;;;;;;;5063929;28;20489;-58
2023/09/06 05:45:13;;;;;;;10.07;6.85;;;;;;;;;;5068107;28;20109;-58
2023/09/06 05:47:39;;;;;;;9.93;7.53;;;;;;;;;;5065986;28;20534;-59
2023/09/06 05:50:06;;;;;;;8.02;6.25;;;;;;;;;;5055616;28;20065;-59
2023/09/06 05:52:32;;;;;;;7.95;6.57;;;;;;;;;;5056551;28;20059;-59
2023/09/06 05:54:58;;;;;;;12.07;6.97;;;;;;;;;;5054487;28;20056;-58
2023/09/06 05:57:25;;;;;;;8.85;5.95;;;;;;;;;;5056517;28;20098;-58
2023/09/06 05:59:51;;;;;;;9.38;6.30;;;;;;;;;;5067430;28;20434;-58
2023/09/06 06:02:17;;;;;;;8.98;5.90;;;;;;;;;;5066465;28;20392;-58
2023/09/06 06:04:46;;;;;;;10.73;6.13;;;;;;;;;;5060572;28;20048;-58
2023/09/06 06:07:16;;;;;;;9.68;5.88;;;;;;;;;;5063614;28;20036;-58
2023/09/06 06:09:42;;;;;;;10.02;6.38;;;;;;;;;;5071140;28;20409;-58
2023/09/06 06:12:10;;;;;;;6.97;5.65;;;;;;;;;;5069217;28;20041;-58
2023/09/06 06:14:36;;;;;;;8.88;5.53;;;;;;;;;;5065605;28;20469;-58
2023/09/06 06:17:05;;;;;;;10.07;6.07;;;;;;;;;;5072144;28;20130;-58
2023/09/06 06:19:33;;;;;;;8.70;6.13;;;;;;;;;;5069989;28;20162;-59
2023/09/06 06:22:03;;;;;;;9.65;5.50;;;;;;;;;;5071934;28;20090;-59
2023/09/06 06:24:30;;;;;;;9.00;6.20;;;;;;;;;;5071483;28;20470;-58
2023/09/06 06:26:58;;;;;;;9.23;6.15;;;;;;;;;;5070037;28;20439;-58
2023/09/06 06:29:24;;;;;;;9.05;5.45;;;;;;;;;;5068590;28;20453;-59
2023/09/06 06:31:50;;;;;;;8.82;6.57;;;;;;;;;;5069404;28;20072;-58
2023/09/06 06:34:18;;;;;;;8.98;5.93;;;;;;;;;;5069833;28;20140;-58
2023/09/06 06:36:45;;;;;;;12.02;6.40;;;;;;;;;;5063763;28;20132;-58
2023/09/06 06:39:12;;;;;;;9.68;5.82;;;;;;;;;;5072097;28;20058;-59
2023/09/06 06:41:38;;;;;;;10.63;6.15;;;;;;;;;;5070586;28;20040;-58
2023/09/06 06:44:05;;;;;;;11.30;5.72;;;;;;;;;;5071525;28;20533;-58
2023/09/06 06:46:32;;;;;;;9.30;6.07;;;;;;;;;;5104606;28;20139;-58
2023/09/06 06:48:59;;;;;;;9.32;6.55;;;;;;;;;;5070532;28;20094;-58
2023/09/06 06:51:26;;;;;;;9.75;5.75;;;;;;;;;;5071600;28;20128;-58
2023/09/06 06:53:52;;;;;;;8.00;5.50;;;;;;;;;;5071900;28;20067;-59
2023/09/06 06:56:21;;;;;;;11.10;6.28;;;;;;;;;;5071994;28;20043;-59
2023/09/06 06:58:50;;;;;;;7.88;5.63;;;;;;;;;;5071160;28;20116;-58
2023/09/06 07:01:17;;;;;;;9.77;6.13;;;;;;;;;;5072211;28;20161;-58
2023/09/06 07:03:43;;;;;;;8.52;5.65;;;;;;;;;;5069994;28;20037;-58
2023/09/06 07:06:09;;;;;;;11.70;6.32;;;;;;;;;;5068642;28;20516;-58
2023/09/06 07:08:36;;;;;;;9.35;5.93;;;;;;;;;;5070705;28;20049;-59
2023/09/06 07:11:06;;;;;;;9.95;5.13;;;;;;;;;;5071777;28;20044;-58
2023/09/06 07:13:34;;;;;;;11.32;5.50;;;;;;;;;;5069828;28;20047;-58
2023/09/06 07:16:00;;;;;;;7.30;5.47;;;;;;;;;;5071602;28;20510;-58
2023/09/06 07:18:27;;;;;;;8.70;5.00;;;;;;;;;;5070456;28;20097;-58
2023/09/06 07:20:53;;;;;;;12.40;5.85;;;;;;;;;;5070867;28;20032;-58
2023/09/06 07:23:19;;;;;;;11.40;5.72;;;;;;;;;;5069334;28;20131;-59
2023/09/06 07:25:46;;;;;;;9.40;5.05;;;;;;;;;;5070813;28;20075;-58
2023/09/06 07:28:13;;;;;;;7.97;4.82;;;;;;;;;;5071116;28;20048;-59
2023/09/06 07:30:39;;;;;;;9.93;5.05;;;;;;;;;;5071628;28;20047;-58
2023/09/06 07:33:06;;;;;;;7.88;4.90;;;;;;;;;;5070729;28;20121;-58
2023/09/06 07:35:32;;;;;;;9.00;5.00;;;;;;;;;;5068938;28;20171;-59
2023/09/06 07:37:58;;;;;;;9.05;4.43;;;;;;;;;;5058880;28;20051;-59
2023/09/06 07:40:24;;;;;;;9.02;4.57;;;;;;;;;;5066357;28;20087;-58
2023/09/06 07:42:51;;;;;;;9.00;4.82;;;;;;;;;;5070045;28;20059;-58
2023/09/06 07:45:17;;;;;;;9.20;4.45;;;;;;;;;;5071096;28;20040;-59
2023/09/06 07:47:43;;;;;;;9.02;4.80;;;;;;;;;;5071786;28;20048;-59
2023/09/06 07:50:10;;;;;;;12.50;4.53;;;;;;;;;;5071146;28;20052;-58
2023/09/06 07:52:37;;;;;;;9.18;4.82;;;;;;;;;;5070411;28;20048;-58
2023/09/06 07:55:05;;;;;;;6.72;4.30;;;;;;;;;;5070337;28;20591;-59
2023/09/06 07:57:31;;;;;;;8.13;4.50;;;;;;;;;;5070891;28;20044;-59
2023/09/06 07:59:57;;;;;;;7.72;4.43;;;;;;;;;;5070516;28;20407;-58
2023/09/06 08:02:23;;;;;;;10.52;4.75;;;;;;;;;;5060612;28;20052;-58
2023/09/06 08:04:53;;;;;;;7.32;4.43;;;;;;;;;;5065313;28;20388;-59
2023/09/06 08:07:21;;;;;;;9.60;4.22;;;;;;;;;;5067293;28;20048;-58
2023/09/06 08:09:47;;;;;;;6.75;4.53;;;;;;;;;;5069130;28;20052;-59
2023/09/06 08:12:13;;;;;;;6.32;3.90;;;;;;;;;;5070858;28;20033;-58
2023/09/06 08:14:41;;;;;;;7.70;3.78;;;;;;;;;;5060157;28;20092;-58
2023/09/06 08:17:08;;;;;;;7.30;4.03;;;;;;;;;;5070018;28;20047;-59
2023/09/06 08:19:34;;;;;;;8.43;3.97;;;;;;;;;;5069931;28;20037;-59
2023/09/06 08:22:00;;;;;;;7.00;4.07;;;;;;;;;;5069695;28;20052;-59
2023/09/06 08:24:30;;;;;;;9.05;4.18;;;;;;;;;;5070336;28;20044;-58
2023/09/06 08:26:57;;;;;;;7.63;3.53;;;;;;;;;;5069774;28;20048;-59
2023/09/06 08:29:23;;;;;;;8.38;3.97;;;;;;;;;;5069253;28;20033;-59
2023/09/06 08:31:49;;;;;;;7.78;3.60;;;;;;;;;;5069604;28;20048;-58
2023/09/06 08:34:15;;;;;;;7.53;4.18;;;;;;;;;;5069139;28;20033;-58
2023/09/06 08:36:42;;;;;;;7.68;3.88;;;;;;;;;;5068847;28;20092;-58
2023/09/06 08:39:08;;;;;;;5.97;3.70;;;;;;;;;;5070385;28;20428;-58
2023/09/06 08:41:34;;;;;;;7.38;3.78;;;;;;;;;;5070468;28;20037;-58
2023/09/06 08:44:06;;;;;;;7.05;3.50;;;;;;;;;;5069519;28;20043;-58
2023/09/06 08:46:34;;;;;;;6.28;3.38;;;;;;;;;;5069208;28;20086;-58
2023/09/06 08:49:05;;;;;;;7.38;3.47;;;;;;;;;;5069955;28;20139;-59
2023/09/06 08:51:36;;;;;;;7.70;3.70;;;;;;;;;;5069483;28;20049;-58
2023/09/06 08:54:06;;;;;;;8.38;4.15;;;;;;;;;;5070436;28;20115;-59
2023/09/06 08:56:32;;;;;;;5.13;3.20;;;;;;;;;;5070420;28;20140;-58
2023/09/06 08:58:59;;;;;;;7.53;3.63;;;;;;;;;;5067173;28;20032;-58
2023/09/06 09:01:26;;;;;;;5.82;3.35;;;;;;;;;;5069461;28;20090;-58
2023/09/06 09:03:55;;;;;;;6.28;3.17;;;;;;;;;;5070018;28;20519;-58
2023/09/06 09:06:21;;;;;;;5.65;3.30;;;;;;;;;;5068932;28;20068;-59
2023/09/06 09:08:48;;;;;;;5.95;3.10;;;;;;;;;;5070008;28;20488;-59
2023/09/06 09:11:20;;;;;;;8.00;4.00;;;;;;;;;;5069117;28;20110;-59
2023/09/06 09:13:47;;;;;;;5.72;3.42;;;;;;;;;;5068702;28;20060;-59
2023/09/06 09:16:14;;;;;;;6.82;3.63;;;;;;;;;;5069541;28;20485;-59
2023/09/06 09:18:42;;;;;;;8.00;3.30;;;;;;;;;;5069071;28;20068;-58
2023/09/06 09:21:12;;;;;;;8.02;3.83;;;;;;;;;;5070265;28;20184;-58
2023/09/06 09:23:53;;;;;;;6.40;3.45;;;;;;;;;;5070041;28;20041;-58
2023/09/06 09:26:19;;;;;;;4.40;2.95;;;;;;;;;;5069276;28;20087;-58
2023/09/06 09:28:46;;;;;;;7.13;3.13;;;;;;;;;;5069768;28;20118;-58
2023/09/06 09:31:18;;;;;;;4.97;2.85;;;;;;;;;;5069449;28;20163;-58
2023/09/06 09:33:45;;;;;;;5.03;3.10;;;;;;;;;;5069199;28;20063;-59
2023/09/06 09:36:13;;;;;;;5.70;3.00;;;;;;;;;;5069907;28;20044;-59
2023/09/06 09:38:43;;;;;;;7.63;3.47;;;;;;;;;;5073397;28;20048;-59
2023/09/06 09:41:10;;;;;;;6.68;2.90;;;;;;;;;;5072653;28;20102;-59
2023/09/06 09:43:37;;;;;;;7.43;2.90;;;;;;;;;;5074617;28;20053;-59
2023/09/06 09:46:04;;;;;;;5.00;2.67;;;;;;;;;;5072808;28;20479;-59
2023/09/06 09:48:30;;;;;;;7.05;2.92;;;;;;;;;;5072479;28;20444;-59
2023/09/06 09:50:57;;;;;;;5.10;2.58;;;;;;;;;;5072970;28;20048;-59
2023/09/06 09:53:24;;;;;;;6.03;2.88;;;;;;;;;;5072466;28;20407;-59
2023/09/06 09:55:52;;;;;;;6.20;2.60;;;;;;;;;;5072712;28;20037;-60
2023/09/06 09:58:20;;;;;;;6.05;2.53;;;;;;;;;;5072357;28;20401;-59
2023/09/06 10:00:46;;;;;;;8.45;2.55;;;;;;;;;;5072292;28;20123;-59
2023/09/06 10:03:13;;;;;;;6.22;2.83;;;;;;;;;;5072161;28;20029;-59
2023/09/06 10:05:42;;;;;;;5.45;2.38;;;;;;;;;;5072075;28;20087;-59
2023/09/06 10:08:09;;;;;;;6.75;2.63;;;;;;;;;;5071618;28;20040;-59
2023/09/06 10:10:38;;;;;;;4.45;2.20;;;;;;;;;;5071993;28;20080;-59
2023/09/06 10:13:07;;;;;;;4.95;2.30;;;;;;;;;;5072101;28;20050;-59
2023/09/06 10:15:34;;;;;;;4.55;2.25;;;;;;;;;;5072244;28;20044;-59
2023/09/06 10:18:01;;;;;;;5.93;2.53;;;;;;;;;;5072928;28;20040;-59
2023/09/06 10:20:30;;;;;;;5.80;3.03;;;;;;;;;;5072036;28;20055;-59
2023/09/06 10:22:57;;;;;;;4.65;2.47;;;;;;;;;;5070433;28;20496;-59
2023/09/06 10:25:25;;;;;;;5.28;2.25;;;;;;;;;;5072649;28;20688;-59
2023/09/06 10:27:55;;;;;;;4.03;2.15;;;;;;;;;;5072752;28;20117;-59
2023/09/06 10:30:28;;;;;;;5.35;2.28;;;;;;;;;;5071794;28;20488;-59
2023/09/06 10:32:55;;;;;;;4.03;2.00;;;;;;;;;;5071807;28;20495;-59
2023/09/06 10:35:22;;;;;;;7.38;2.35;;;;;;;;;;5071128;28;20457;-59
2023/09/06 10:38:07;;;;;;;7.07;2.10;;;;;;;;;;5069919;28;20049;-59
2023/09/06 10:40:53;;;;;;;4.32;2.15;;;;;;;;;;5071822;28;20080;-59
2023/09/06 10:43:28;;;;;;;4.88;2.17;;;;;;;;;;5071757;28;20119;-59
2023/09/06 10:45:55;;;;;;;5.97;2.00;;;;;;;;;;5072128;28;20149;-58
2023/09/06 10:48:21;;;;;;;4.95;2.20;;;;;;;;;;5071977;28;20227;-58
2023/09/06 10:51:07;;;;;;;6.28;1.70;;;;;;;;;;5071290;28;20048;-58
2023/09/06 10:53:40;;;;;;;4.43;2.30;;;;;;;;;;5072254;28;20561;-59
2023/09/06 10:56:07;;;;;;;5.72;2.03;;;;;;;;;;5060542;28;20056;-58
2023/09/06 10:58:37;;;;;;;3.47;1.70;;;;;;;;;;5069363;28;20496;-59
2023/09/06 11:01:12;;;;;;;4.05;2.33;;;;;;;;;;5071804;28;20052;-60
2023/09/06 11:03:38;;;;;;;3.60;1.85;;;;;;;;;;5069799;28;20400;-59
2023/09/06 11:06:04;;;;;;;5.35;2.00;;;;;;;;;;5070940;28;20384;-60
2023/09/06 11:08:32;;;;;;;6.07;1.90;;;;;;;;;;5070669;28;20076;-59
2023/09/06 11:11:02;;;;;;;3.90;1.88;;;;;;;;;;5069942;28;20400;-59
2023/09/06 11:13:32;;;;;;;4.45;1.42;;;;;;;;;;5067835;28;20133;-59
2023/09/06 11:15:58;;;;;;;5.07;1.52;;;;;;;;;;5066352;28;20075;-59
2023/09/06 11:18:24;;;;;;;4.40;1.80;;;;;;;;;;5063989;28;20417;-59
2023/09/06 11:20:50;;;;;;;5.40;2.17;;;;;;;;;;5066645;28;20121;-59
2023/09/06 11:23:17;;;;;;;3.55;1.63;;;;;;;;;;5064281;28;20044;-59
2023/09/06 11:25:44;;;;;;;4.03;1.67;;;;;;;;;;5050732;28;20041;-59
2023/09/06 11:28:18;;;;;;;6.47;2.13;;;;;;;;;;5060810;28;20040;-59
2023/09/06 11:30:46;;;;;;;4.05;1.70;;;;;;;;;;5064337;28;20123;-59
2023/09/06 11:33:13;;;;;;;3.17;1.50;;;;;;;;;;5050761;28;20060;-59
2023/09/06 11:35:45;;;;;;;4.30;1.85;;;;;;;;;;5066331;28;20039;-59
2023/09/06 11:38:11;;;;;;;;;;;;;;;;;;5065102;28;20377;-59
2023/09/06 11:40:38;;;;;;;4.18;1.70;;;;;;;;;;5051786;28;20280;-59
2023/09/06 11:43:05;;;;;;;3.75;1.60;;;;;;;;;;5051381;28;20080;-59
2023/09/06 11:45:32;;;;;;;4.57;1.60;;;;;;;;;;5065847;28;20045;-59
2023/09/06 11:48:08;;;;;;;4.20;1.85;;;;;;;;;;5061016;28;20413;-59
2023/09/06 11:50:40;;;;;;;3.38;1.70;;;;;;;;;;5050793;28;20055;-59
2023/09/06 11:53:09;;;;;;;9.43;2.33;;;;;;;;;;5062729;28;20053;-59
2023/09/06 11:55:42;;;;;;;3.80;1.13;;;;;;;;;;5056654;28;20568;-59
2023/09/06 11:58:20;;;;;;;3.88;1.33;;;;;;;;;;5070786;28;20102;-59
2023/09/06 12:00:47;;;;;;;2.25;1.05;;;;;;;;;;5061259;28;20086;-59
2023/09/06 12:03:16;;;;;;;3.90;1.35;;;;;;;;;;5060514;28;20044;-59
2023/09/06 12:05:46;;;;;;;3.65;1.50;;;;;;;;;;5050518;28;20112;-59
2023/09/06 12:08:17;;;;;;;4.20;1.45;;;;;;;;;;5069321;28;20041;-59
2023/09/06 12:10:50;;;;;;;2.60;1.13;;;;;;;;;;5061073;28;20040;-59
2023/09/06 12:13:20;;;;;;;6.30;1.45;;;;;;;;;;5070549;28;20056;-59
2023/09/06 12:15:47;;;;;;;3.10;1.30;;;;;;;;;;5069085;28;20138;-59
2023/09/06 12:18:13;;;;;;;3.45;1.40;;;;;;;;;;5070378;28;20053;-60
2023/09/06 12:20:39;;;;;;;3.25;1.45;;;;;;;;;;5070709;28;20041;-59
2023/09/06 12:23:06;;;;;;;3.72;1.27;;;;;;;;;;5069908;28;20040;-59
2023/09/06 12:25:32;;;;;;;6.03;2.03;;;;;;;;;;5070413;28;20036;-59
2023/09/06 12:27:58;;;;;;;3.03;1.17;;;;;;;;;;5070243;28;20048;-59
2023/09/06 12:30:24;;;;;;;3.03;1.30;;;;;;;;;;5064732;28;20519;-59
2023/09/06 12:32:51;;;;;;;3.60;1.80;;;;;;;;;;5070488;28;20099;-59
2023/09/06 12:35:17;;;;;;;3.20;1.33;;;;;;;;;;5069704;28;20604;-59
2023/09/06 12:37:43;;;;;;;5.07;1.88;;;;;;;;;;5069938;28;20041;-59
2023/09/06 12:40:13;;;;;;;4.40;1.85;;;;;;;;;;5070311;28;20052;-59
2023/09/06 12:42:45;;;;;;;3.05;1.40;;;;;;;;;;5069782;28;20044;-59
2023/09/06 12:45:16;;;;;;;3.53;1.70;;;;;;;;;;5070538;28;20045;-59
2023/09/06 12:47:42;;;;;;;3.55;1.42;;;;;;;;;;5070488;28;20053;-60
2023/09/06 12:50:09;;;;;;;3.28;1.42;;;;;;;;;;5068203;28;20052;-59
2023/09/06 12:52:35;;;;;;;3.10;1.55;;;;;;;;;;5070570;27;20058;-60
2023/09/06 12:55:04;;;;;;;5.53;1.55;;;;;;;;;;5069857;28;20079;-59
2023/09/06 12:57:31;;;;;;;2.45;1.10;;;;;;;;;;5101921;28;20044;-59
2023/09/06 12:59:58;;;;;;;7.03;1.25;;;;;;;;;;5069556;28;20061;-60
2023/09/06 13:02:28;;;;;;;6.25;1.42;;;;;;;;;;5070164;28;20060;-59
2023/09/06 13:04:54;;;;;;;5.70;1.30;;;;;;;;;;5069565;28;20047;-60
2023/09/06 13:07:20;;;;;;;4.30;2.05;;;;;;;;;;5069645;28;20044;-59
2023/09/06 13:09:46;;;;;;;4.38;1.52;;;;;;;;;;5069952;28;20127;-60
2023/09/06 13:12:13;;;;;;;2.83;1.30;;;;;;;;;;5071050;28;20044;-59
2023/09/06 13:14:39;;;;;;;2.65;1.20;;;;;;;;;;5073763;28;20484;-60
2023/09/06 13:17:05;;;;;;;8.75;1.50;;;;;;;;;;5073789;28;20281;-59
2023/09/06 13:19:32;;;;;;;3.53;1.30;;;;;;;;;;5072492;28;20071;-59
2023/09/06 13:21:58;;;;;;;3.90;1.10;;;;;;;;;;5074108;28;20100;-59
2023/09/06 13:24:24;;;;;;;3.80;1.58;;;;;;;;;;5073718;28;20363;-59
2023/09/06 13:26:52;;;;;;;5.55;1.55;;;;;;;;;;5073634;28;20033;-59
2023/09/06 13:29:19;;;;;;;2.88;1.25;;;;;;;;;;5073775;28;20040;-59
2023/09/06 13:31:45;;;;;;;3.92;1.20;;;;;;;;;;5072724;28;20075;-60
2023/09/06 13:34:11;;;;;;;5.55;1.70;;;;;;;;;;5070686;28;20381;-59
2023/09/06 13:36:37;;;;;;;5.13;1.45;;;;;;;;;;5070124;28;20059;-59
2023/09/06 13:39:04;;;;;;;3.17;1.30;;;;;;;;;;5072577;28;20119;-59
2023/09/06 13:41:30;;;;;;;2.33;1.10;;;;;;;;;;5073667;28;20110;-59
2023/09/06 13:43:56;;;;;;;3.00;1.40;;;;;;;;;;5073430;28;20091;-59
2023/09/06 13:46:23;;;;;;;2.47;1.23;;;;;;;;;;5072675;28;20045;-59
2023/09/06 13:48:49;;;;;;;4.20;1.73;;;;;;;;;;5071064;28;20045;-59
2023/09/06 13:51:15;;;;;;;4.72;1.40;;;;;;;;;;5072972;28;20047;-59
2023/09/06 13:53:43;;;;;;;5.55;1.83;;;;;;;;;;5101538;28;20048;-59
2023/09/06 13:56:09;;;;;;;10.52;1.40;;;;;;;;;;5073339;28;20067;-59
2023/09/06 13:58:35;;;;;;;7.78;1.45;;;;;;;;;;5073282;28;20076;-59
2023/09/06 14:01:02;;;;;;;3.78;1.70;;;;;;;;;;5071605;28;20423;-59
2023/09/06 14:03:28;;;;;;;4.32;1.65;;;;;;;;;;5071990;28;20194;-59
2023/09/06 14:05:54;;;;;;;3.72;1.70;;;;;;;;;;5073086;28;20079;-59
2023/09/06 14:08:21;;;;;;;6.28;1.63;;;;;;;;;;5072082;28;20060;-60
2023/09/06 14:10:50;;;;;;;2.97;1.38;;;;;;;;;;5069336;28;20387;-59
2023/09/06 14:13:17;;;;;;;4.03;1.60;;;;;;;;;;5072228;28;20119;-59
2023/09/06 14:15:43;;;;;;;6.47;1.40;;;;;;;;;;5072292;28;20396;-59
2023/09/06 14:18:09;;;;;;;3.03;1.42;;;;;;;;;;5072767;28;20051;-59
2023/09/06 14:20:36;;;;;;;3.58;1.50;;;;;;;;;;5071163;28;20178;-59
2023/09/06 14:23:02;;;;;;;5.20;1.60;;;;;;;;;;5071668;28;20048;-59
2023/09/06 14:25:28;;;;;;;3.10;1.50;;;;;;;;;;5072307;28;20040;-59
2023/09/06 14:27:55;;;;;;;2.90;1.50;;;;;;;;;;5071867;28;20048;-59
2023/09/06 14:30:21;;;;;;;7.47;1.90;;;;;;;;;;5072553;28;20425;-60
2023/09/06 14:32:48;;;;;;;4.85;1.73;;;;;;;;;;5072051;28;20492;-59
2023/09/06 14:35:14;;;;;;;5.18;1.27;;;;;;;;;;5070752;28;20094;-59